sensor_id;sensor_type;location;lat;lon;timestamp;temperature;humidity
5786;DHT22;2919;48.630;9.000;2022-07-17T00:00:40;14.50;91.20
5786;DHT22;2919;48.630;9.000;2022-07-17T00:03:11;14.50;91.00
5786;DHT22;2919;48.630;9.000;2022-07-17T00:05:38;14.40;91.20
5786;DHT22;2919;48.630;9.000;2022-07-17T00:08:08;14.40;91.30
5786;DHT22;2919;48.630;9.000;2022-07-17T00:10:35;14.40;91.50
5786;DHT22;2919;48.630;9.000;2022-07-17T00:13:01;14.30;91.50
5786;DHT22;2919;48.630;9.000;2022-07-17T00:15:27;14.30;91.70
5786;DHT22;2919;48.630;9.000;2022-07-17T00:17:53;14.20;91.50
5786;DHT22;2919;48.630;9.000;2022-07-17T00:20:19;14.20;91.60
5786;DHT22;2919;48.630;9.000;2022-07-17T00:22:44;14.20;91.70
5786;DHT22;2919;48.630;9.000;2022-07-17T00:25:12;14.20;91.80
5786;DHT22;2919;48.630;9.000;2022-07-17T00:27:37;14.20;91.70
5786;DHT22;2919;48.630;9.000;2022-07-17T00:30:04;14.20;91.60
5786;DHT22;2919;48.630;9.000;2022-07-17T00:32:30;14.20;91.60
5786;DHT22;2919;48.630;9.000;2022-07-17T00:34:56;14.20;91.90
5786;DHT22;2919;48.630;9.000;2022-07-17T00:37:22;14.10;91.70
5786;DHT22;2919;48.630;9.000;2022-07-17T00:39:48;14.10;91.90
5786;DHT22;2919;48.630;9.000;2022-07-17T00:42:15;14.00;92.20
5786;DHT22;2919;48.630;9.000;2022-07-17T00:44:42;13.90;92.40
5786;DHT22;2919;48.630;9.000;2022-07-17T00:47:19;13.90;92.40
5786;DHT22;2919;48.630;9.000;2022-07-17T00:49:46;13.80;92.70
5786;DHT22;2919;48.630;9.000;2022-07-17T00:52:13;13.80;92.80
5786;DHT22;2919;48.630;9.000;2022-07-17T00:54:40;13.80;92.80
5786;DHT22;2919;48.630;9.000;2022-07-17T00:57:09;13.70;93.00
5786;DHT22;2919;48.630;9.000;2022-07-17T00:59:36;13.80;93.00
5786;DHT22;2919;48.630;9.000;2022-07-17T01:02:06;13.80;92.60
5786;DHT22;2919;48.630;9.000;2022-07-17T01:04:33;13.80;92.90
5786;DHT22;2919;48.630;9.000;2022-07-17T01:07:00;13.70;92.80
5786;DHT22;2919;48.630;9.000;2022-07-17T01:09:28;13.70;93.10
5786;DHT22;2919;48.630;9.000;2022-07-17T01:11:55;13.60;93.20
5786;DHT22;2919;48.630;9.000;2022-07-17T01:14:22;13.60;93.40
5786;DHT22;2919;48.630;9.000;2022-07-17T01:16:49;13.70;93.60
5786;DHT22;2919;48.630;9.000;2022-07-17T01:19:15;13.60;93.50
5786;DHT22;2919;48.630;9.000;2022-07-17T01:21:44;13.50;93.50
5786;DHT22;2919;48.630;9.000;2022-07-17T01:24:10;13.40;93.60
5786;DHT22;2919;48.630;9.000;2022-07-17T01:26:36;13.40;93.80
5786;DHT22;2919;48.630;9.000;2022-07-17T01:29:02;13.40;94.00
5786;DHT22;2919;48.630;9.000;2022-07-17T01:31:28;13.30;94.00
5786;DHT22;2919;48.630;9.000;2022-07-17T01:33:54;13.30;94.10
5786;DHT22;2919;48.630;9.000;2022-07-17T01:36:23;13.20;94.10
5786;DHT22;2919;48.630;9.000;2022-07-17T01:38:49;13.20;94.00
5786;DHT22;2919;48.630;9.000;2022-07-17T01:41:15;13.20;94.10
5786;DHT22;2919;48.630;9.000;2022-07-17T01:43:41;13.20;94.40
5786;DHT22;2919;48.630;9.000;2022-07-17T01:46:06;13.10;94.20
5786;DHT22;2919;48.630;9.000;2022-07-17T01:48:32;13.10;94.50
5786;DHT22;2919;48.630;9.000;2022-07-17T01:50:58;13.10;94.60
5786;DHT22;2919;48.630;9.000;2022-07-17T01:53:23;13.10;94.80
5786;DHT22;2919;48.630;9.000;2022-07-17T01:55:49;13.00;94.60
5786;DHT22;2919;48.630;9.000;2022-07-17T01:58:15;13.00;94.80
5786;DHT22;2919;48.630;9.000;2022-07-17T02:00:41;13.00;94.70
5786;DHT22;2919;48.630;9.000;2022-07-17T02:03:07;13.00;95.00
5786;DHT22;2919;48.630;9.000;2022-07-17T02:05:32;13.00;95.20
5786;DHT22;2919;48.630;9.000;2022-07-17T02:07:58;13.00;94.70
5786;DHT22;2919;48.630;9.000;2022-07-17T02:10:24;12.90;94.70
5786;DHT22;2919;48.630;9.000;2022-07-17T02:12:49;12.90;95.00
5786;DHT22;2919;48.630;9.000;2022-07-17T02:15:15;12.90;95.20
5786;DHT22;2919;48.630;9.000;2022-07-17T02:17:42;12.90;95.20
5786;DHT22;2919;48.630;9.000;2022-07-17T02:20:08;12.80;95.30
5786;DHT22;2919;48.630;9.000;2022-07-17T02:22:35;12.80;95.30
5786;DHT22;2919;48.630;9.000;2022-07-17T02:25:01;12.80;95.20
5786;DHT22;2919;48.630;9.000;2022-07-17T02:27:26;12.90;95.50
5786;DHT22;2919;48.630;9.000;2022-07-17T02:29:52;12.70;95.20
5786;DHT22;2919;48.630;9.000;2022-07-17T02:32:18;12.70;95.50
5786;DHT22;2919;48.630;9.000;2022-07-17T02:34:43;12.80;95.50
5786;DHT22;2919;48.630;9.000;2022-07-17T02:37:09;12.70;95.50
5786;DHT22;2919;48.630;9.000;2022-07-17T02:39:35;12.80;95.40
5786;DHT22;2919;48.630;9.000;2022-07-17T02:42:01;12.70;95.40
5786;DHT22;2919;48.630;9.000;2022-07-17T02:44:26;12.70;95.60
5786;DHT22;2919;48.630;9.000;2022-07-17T02:46:52;12.60;95.50
5786;DHT22;2919;48.630;9.000;2022-07-17T02:49:18;12.60;95.70
5786;DHT22;2919;48.630;9.000;2022-07-17T02:51:43;12.60;96.00
5786;DHT22;2919;48.630;9.000;2022-07-17T02:54:09;12.50;96.10
5786;DHT22;2919;48.630;9.000;2022-07-17T02:56:34;12.40;96.20
5786;DHT22;2919;48.630;9.000;2022-07-17T02:59:00;12.40;96.40
5786;DHT22;2919;48.630;9.000;2022-07-17T03:01:25;12.40;96.20
5786;DHT22;2919;48.630;9.000;2022-07-17T03:03:51;12.40;96.40
5786;DHT22;2919;48.630;9.000;2022-07-17T03:06:17;12.40;96.60
5786;DHT22;2919;48.630;9.000;2022-07-17T03:08:42;12.30;96.50
5786;DHT22;2919;48.630;9.000;2022-07-17T03:11:08;12.30;96.70
5786;DHT22;2919;48.630;9.000;2022-07-17T03:13:34;12.30;96.60
5786;DHT22;2919;48.630;9.000;2022-07-17T03:15:59;12.30;96.80
5786;DHT22;2919;48.630;9.000;2022-07-17T03:18:25;12.30;96.60
5786;DHT22;2919;48.630;9.000;2022-07-17T03:20:50;12.30;96.80
5786;DHT22;2919;48.630;9.000;2022-07-17T03:23:16;12.30;96.70
5786;DHT22;2919;48.630;9.000;2022-07-17T03:25:42;12.30;96.50
5786;DHT22;2919;48.630;9.000;2022-07-17T03:28:07;12.30;96.50
5786;DHT22;2919;48.630;9.000;2022-07-17T03:30:33;12.30;96.50
5786;DHT22;2919;48.630;9.000;2022-07-17T03:32:59;12.30;96.60
5786;DHT22;2919;48.630;9.000;2022-07-17T03:35:24;12.30;96.90
5786;DHT22;2919;48.630;9.000;2022-07-17T03:37:50;12.20;96.90
5786;DHT22;2919;48.630;9.000;2022-07-17T03:40:15;12.20;97.20
5786;DHT22;2919;48.630;9.000;2022-07-17T03:42:41;12.20;97.10
5786;DHT22;2919;48.630;9.000;2022-07-17T03:45:07;12.10;97.10
5786;DHT22;2919;48.630;9.000;2022-07-17T03:47:33;12.10;97.30
5786;DHT22;2919;48.630;9.000;2022-07-17T03:49:59;12.20;97.40
5786;DHT22;2919;48.630;9.000;2022-07-17T03:52:24;12.10;97.40
5786;DHT22;2919;48.630;9.000;2022-07-17T03:54:50;12.10;97.60
5786;DHT22;2919;48.630;9.000;2022-07-17T03:57:16;12.10;97.80
5786;DHT22;2919;48.630;9.000;2022-07-17T03:59:41;12.10;97.80
5786;DHT22;2919;48.630;9.000;2022-07-17T04:02:07;12.10;97.70
5786;DHT22;2919;48.630;9.000;2022-07-17T04:04:32;12.00;97.80
5786;DHT22;2919;48.630;9.000;2022-07-17T04:06:58;12.00;98.10
5786;DHT22;2919;48.630;9.000;2022-07-17T04:09:24;12.00;97.80
5786;DHT22;2919;48.630;9.000;2022-07-17T04:11:49;12.00;98.20
5786;DHT22;2919;48.630;9.000;2022-07-17T04:14:15;12.10;97.90
5786;DHT22;2919;48.630;9.000;2022-07-17T04:16:41;12.10;98.00
5786;DHT22;2919;48.630;9.000;2022-07-17T04:19:07;12.10;97.90
5786;DHT22;2919;48.630;9.000;2022-07-17T04:21:32;12.10;97.90
5786;DHT22;2919;48.630;9.000;2022-07-17T04:23:58;12.10;98.10
5786;DHT22;2919;48.630;9.000;2022-07-17T04:26:23;12.20;98.10
5786;DHT22;2919;48.630;9.000;2022-07-17T04:28:49;12.30;98.20
5786;DHT22;2919;48.630;9.000;2022-07-17T04:31:15;12.30;97.80
5786;DHT22;2919;48.630;9.000;2022-07-17T04:33:40;12.30;98.00
5786;DHT22;2919;48.630;9.000;2022-07-17T04:36:06;12.40;98.10
5786;DHT22;2919;48.630;9.000;2022-07-17T04:38:32;12.50;98.00
5786;DHT22;2919;48.630;9.000;2022-07-17T04:40:57;12.50;97.90
5786;DHT22;2919;48.630;9.000;2022-07-17T04:43:23;12.60;97.90
5786;DHT22;2919;48.630;9.000;2022-07-17T04:45:48;12.60;97.60
5786;DHT22;2919;48.630;9.000;2022-07-17T04:48:14;12.60;97.30
5786;DHT22;2919;48.630;9.000;2022-07-17T04:50:40;12.60;97.50
5786;DHT22;2919;48.630;9.000;2022-07-17T04:53:06;12.60;97.90
5786;DHT22;2919;48.630;9.000;2022-07-17T04:55:31;12.70;98.00
5786;DHT22;2919;48.630;9.000;2022-07-17T04:57:57;12.70;98.00
5786;DHT22;2919;48.630;9.000;2022-07-17T05:00:23;12.70;97.90
5786;DHT22;2919;48.630;9.000;2022-07-17T05:02:48;12.80;97.40
5786;DHT22;2919;48.630;9.000;2022-07-17T05:05:14;12.80;97.50
5786;DHT22;2919;48.630;9.000;2022-07-17T05:07:40;12.90;97.60
5786;DHT22;2919;48.630;9.000;2022-07-17T05:10:06;12.90;97.10
5786;DHT22;2919;48.630;9.000;2022-07-17T05:12:31;13.00;97.50
5786;DHT22;2919;48.630;9.000;2022-07-17T05:14:57;13.10;98.00
5786;DHT22;2919;48.630;9.000;2022-07-17T05:17:24;13.20;97.50
5786;DHT22;2919;48.630;9.000;2022-07-17T05:19:49;13.20;97.90
5786;DHT22;2919;48.630;9.000;2022-07-17T05:22:15;13.40;98.00
5786;DHT22;2919;48.630;9.000;2022-07-17T05:24:40;13.50;97.70
5786;DHT22;2919;48.630;9.000;2022-07-17T05:27:06;13.60;97.90
5786;DHT22;2919;48.630;9.000;2022-07-17T05:29:32;13.60;97.90
5786;DHT22;2919;48.630;9.000;2022-07-17T05:31:57;13.70;97.70
5786;DHT22;2919;48.630;9.000;2022-07-17T05:34:23;13.80;97.80
5786;DHT22;2919;48.630;9.000;2022-07-17T05:36:48;13.80;97.60
5786;DHT22;2919;48.630;9.000;2022-07-17T05:39:14;13.90;97.30
5786;DHT22;2919;48.630;9.000;2022-07-17T05:41:40;13.90;97.10
5786;DHT22;2919;48.630;9.000;2022-07-17T05:44:06;14.00;96.80
5786;DHT22;2919;48.630;9.000;2022-07-17T05:46:31;14.10;96.80
5786;DHT22;2919;48.630;9.000;2022-07-17T05:48:57;14.20;96.70
5786;DHT22;2919;48.630;9.000;2022-07-17T05:51:23;14.30;95.00
5786;DHT22;2919;48.630;9.000;2022-07-17T05:53:48;14.40;95.00
5786;DHT22;2919;48.630;9.000;2022-07-17T05:56:14;14.60;95.00
5786;DHT22;2919;48.630;9.000;2022-07-17T05:58:40;14.70;94.60
5786;DHT22;2919;48.630;9.000;2022-07-17T06:01:05;14.70;94.80
5786;DHT22;2919;48.630;9.000;2022-07-17T06:03:31;14.90;95.20
5786;DHT22;2919;48.630;9.000;2022-07-17T06:05:57;15.00;94.60
5786;DHT22;2919;48.630;9.000;2022-07-17T06:08:22;15.10;93.70
5786;DHT22;2919;48.630;9.000;2022-07-17T06:10:48;15.20;93.10
5786;DHT22;2919;48.630;9.000;2022-07-17T06:13:14;15.40;93.20
5786;DHT22;2919;48.630;9.000;2022-07-17T06:15:39;15.50;92.30
5786;DHT22;2919;48.630;9.000;2022-07-17T06:18:05;15.60;92.30
5786;DHT22;2919;48.630;9.000;2022-07-17T06:20:31;15.70;92.10
5786;DHT22;2919;48.630;9.000;2022-07-17T06:22:57;15.80;92.10
5786;DHT22;2919;48.630;9.000;2022-07-17T06:25:23;15.90;92.40
5786;DHT22;2919;48.630;9.000;2022-07-17T06:27:49;16.00;92.20
5786;DHT22;2919;48.630;9.000;2022-07-17T06:30:15;16.10;91.60
5786;DHT22;2919;48.630;9.000;2022-07-17T06:32:41;16.30;90.50
5786;DHT22;2919;48.630;9.000;2022-07-17T06:35:08;16.50;90.10
5786;DHT22;2919;48.630;9.000;2022-07-17T06:37:34;16.60;89.50
5786;DHT22;2919;48.630;9.000;2022-07-17T06:40:00;16.60;90.00
5786;DHT22;2919;48.630;9.000;2022-07-17T06:42:26;16.70;89.40
5786;DHT22;2919;48.630;9.000;2022-07-17T06:44:52;16.80;89.00
5786;DHT22;2919;48.630;9.000;2022-07-17T06:47:18;16.90;89.50
5786;DHT22;2919;48.630;9.000;2022-07-17T06:49:44;17.00;88.00
5786;DHT22;2919;48.630;9.000;2022-07-17T06:52:10;17.20;87.50
5786;DHT22;2919;48.630;9.000;2022-07-17T06:54:35;17.40;86.20
5786;DHT22;2919;48.630;9.000;2022-07-17T06:57:01;17.60;84.40
5786;DHT22;2919;48.630;9.000;2022-07-17T06:59:27;17.60;85.20
5786;DHT22;2919;48.630;9.000;2022-07-17T07:01:52;17.80;84.00
5786;DHT22;2919;48.630;9.000;2022-07-17T07:04:18;17.90;83.30
5786;DHT22;2919;48.630;9.000;2022-07-17T07:06:44;18.10;82.70
5786;DHT22;2919;48.630;9.000;2022-07-17T07:09:09;18.20;82.20
5786;DHT22;2919;48.630;9.000;2022-07-17T07:11:38;18.50;81.60
5786;DHT22;2919;48.630;9.000;2022-07-17T07:14:06;18.70;79.50
5786;DHT22;2919;48.630;9.000;2022-07-17T07:16:32;18.90;79.20
5786;DHT22;2919;48.630;9.000;2022-07-17T07:18:57;19.20;78.30
5786;DHT22;2919;48.630;9.000;2022-07-17T07:21:23;19.40;76.10
5786;DHT22;2919;48.630;9.000;2022-07-17T07:23:51;19.60;76.00
5786;DHT22;2919;48.630;9.000;2022-07-17T07:26:16;19.70;74.50
5786;DHT22;2919;48.630;9.000;2022-07-17T07:28:42;20.00;72.00
5786;DHT22;2919;48.630;9.000;2022-07-17T07:31:08;20.40;71.60
5786;DHT22;2919;48.630;9.000;2022-07-17T07:33:33;20.70;72.40
5786;DHT22;2919;48.630;9.000;2022-07-17T07:35:59;21.10;70.70
5786;DHT22;2919;48.630;9.000;2022-07-17T07:38:25;21.70;69.10
5786;DHT22;2919;48.630;9.000;2022-07-17T07:40:51;22.00;67.90
5786;DHT22;2919;48.630;9.000;2022-07-17T07:43:16;22.30;69.20
5786;DHT22;2919;48.630;9.000;2022-07-17T07:45:42;23.50;65.20
5786;DHT22;2919;48.630;9.000;2022-07-17T07:48:08;24.80;63.60
5786;DHT22;2919;48.630;9.000;2022-07-17T07:50:33;26.80;58.20
5786;DHT22;2919;48.630;9.000;2022-07-17T07:52:59;27.30;57.30
5786;DHT22;2919;48.630;9.000;2022-07-17T07:55:24;27.60;56.30
5786;DHT22;2919;48.630;9.000;2022-07-17T07:58:10;27.60;56.80
5786;DHT22;2919;48.630;9.000;2022-07-17T08:00:37;28.50;53.30
5786;DHT22;2919;48.630;9.000;2022-07-17T08:03:04;29.00;52.40
5786;DHT22;2919;48.630;9.000;2022-07-17T08:05:30;29.70;51.30
5786;DHT22;2919;48.630;9.000;2022-07-17T08:07:56;29.40;52.70
5786;DHT22;2919;48.630;9.000;2022-07-17T08:10:22;29.40;52.10
5786;DHT22;2919;48.630;9.000;2022-07-17T08:12:48;29.80;51.50
5786;DHT22;2919;48.630;9.000;2022-07-17T08:15:19;30.00;50.50
5786;DHT22;2919;48.630;9.000;2022-07-17T08:17:46;30.50;49.70
5786;DHT22;2919;48.630;9.000;2022-07-17T08:20:12;30.40;49.70
5786;DHT22;2919;48.630;9.000;2022-07-17T08:22:39;30.80;49.00
5786;DHT22;2919;48.630;9.000;2022-07-17T08:25:05;31.70;47.70
5786;DHT22;2919;48.630;9.000;2022-07-17T08:27:40;30.60;49.00
5786;DHT22;2919;48.630;9.000;2022-07-17T08:30:08;28.90;50.80
5786;DHT22;2919;48.630;9.000;2022-07-17T08:32:35;28.90;51.60
5786;DHT22;2919;48.630;9.000;2022-07-17T08:35:01;28.90;51.70
5786;DHT22;2919;48.630;9.000;2022-07-17T08:37:27;29.70;50.60
5786;DHT22;2919;48.630;9.000;2022-07-17T08:39:53;29.30;51.30
5786;DHT22;2919;48.630;9.000;2022-07-17T08:42:18;29.20;51.50
5786;DHT22;2919;48.630;9.000;2022-07-17T08:44:46;28.80;52.00
5786;DHT22;2919;48.630;9.000;2022-07-17T08:47:13;29.60;50.90
5786;DHT22;2919;48.630;9.000;2022-07-17T08:49:43;29.60;52.10
5786;DHT22;2919;48.630;9.000;2022-07-17T08:52:13;29.40;52.00
5786;DHT22;2919;48.630;9.000;2022-07-17T08:54:39;28.60;51.70
5786;DHT22;2919;48.630;9.000;2022-07-17T08:57:05;28.80;50.70
5786;DHT22;2919;48.630;9.000;2022-07-17T08:59:31;28.90;50.60
5786;DHT22;2919;48.630;9.000;2022-07-17T09:02:00;29.20;51.00
5786;DHT22;2919;48.630;9.000;2022-07-17T09:04:26;29.20;49.20
5786;DHT22;2919;48.630;9.000;2022-07-17T09:07:03;28.60;50.60
5786;DHT22;2919;48.630;9.000;2022-07-17T09:09:30;28.50;50.90
5786;DHT22;2919;48.630;9.000;2022-07-17T09:11:57;28.70;52.20
5786;DHT22;2919;48.630;9.000;2022-07-17T09:14:37;28.70;50.90
5786;DHT22;2919;48.630;9.000;2022-07-17T09:17:04;28.80;51.90
5786;DHT22;2919;48.630;9.000;2022-07-17T09:19:31;29.10;51.10
5786;DHT22;2919;48.630;9.000;2022-07-17T09:27:10;28.70;51.00
5786;DHT22;2919;48.630;9.000;2022-07-17T09:32:19;27.70;52.50
5786;DHT22;2919;48.630;9.000;2022-07-17T09:34:49;27.80;52.50
5786;DHT22;2919;48.630;9.000;2022-07-17T09:37:15;28.20;51.00
5786;DHT22;2919;48.630;9.000;2022-07-17T09:39:42;28.70;50.60
5786;DHT22;2919;48.630;9.000;2022-07-17T09:42:08;28.70;49.90
5786;DHT22;2919;48.630;9.000;2022-07-17T09:44:34;27.90;51.40
5786;DHT22;2919;48.630;9.000;2022-07-17T09:47:01;28.50;50.30
5786;DHT22;2919;48.630;9.000;2022-07-17T09:49:28;28.10;52.00
5786;DHT22;2919;48.630;9.000;2022-07-17T09:51:54;27.90;51.00
5786;DHT22;2919;48.630;9.000;2022-07-17T09:54:22;28.20;50.70
5786;DHT22;2919;48.630;9.000;2022-07-17T09:56:50;28.40;50.40
5786;DHT22;2919;48.630;9.000;2022-07-17T09:59:18;28.50;49.90
5786;DHT22;2919;48.630;9.000;2022-07-17T10:01:45;27.60;52.00
5786;DHT22;2919;48.630;9.000;2022-07-17T10:04:15;27.70;51.60
5786;DHT22;2919;48.630;9.000;2022-07-17T10:06:42;28.40;50.60
5786;DHT22;2919;48.630;9.000;2022-07-17T10:09:08;28.30;50.20
5786;DHT22;2919;48.630;9.000;2022-07-17T10:11:36;28.20;50.40
5786;DHT22;2919;48.630;9.000;2022-07-17T10:14:13;28.30;49.90
5786;DHT22;2919;48.630;9.000;2022-07-17T10:16:39;28.50;48.90
5786;DHT22;2919;48.630;9.000;2022-07-17T10:19:43;28.50;47.50
5786;DHT22;2919;48.630;9.000;2022-07-17T10:22:09;28.10;49.10
5786;DHT22;2919;48.630;9.000;2022-07-17T10:24:45;27.80;49.80
5786;DHT22;2919;48.630;9.000;2022-07-17T10:27:44;27.60;50.00
5786;DHT22;2919;48.630;9.000;2022-07-17T10:30:11;27.60;47.80
5786;DHT22;2919;48.630;9.000;2022-07-17T10:32:39;26.80;49.10
5786;DHT22;2919;48.630;9.000;2022-07-17T10:35:07;26.80;50.20
5786;DHT22;2919;48.630;9.000;2022-07-17T10:37:39;26.60;48.40
5786;DHT22;2919;48.630;9.000;2022-07-17T10:50:25;26.60;48.20
5786;DHT22;2919;48.630;9.000;2022-07-17T10:58:43;26.40;50.40
5786;DHT22;2919;48.630;9.000;2022-07-17T11:01:11;26.40;51.40
5786;DHT22;2919;48.630;9.000;2022-07-17T11:04:04;26.60;49.80
5786;DHT22;2919;48.630;9.000;2022-07-17T11:06:37;26.70;46.80
5786;DHT22;2919;48.630;9.000;2022-07-17T11:09:10;26.70;47.60
5786;DHT22;2919;48.630;9.000;2022-07-17T11:11:41;27.00;45.80
5786;DHT22;2919;48.630;9.000;2022-07-17T11:16:56;26.70;46.10
5786;DHT22;2919;48.630;9.000;2022-07-17T11:19:33;26.80;47.30
5786;DHT22;2919;48.630;9.000;2022-07-17T11:22:02;26.90;48.50
5786;DHT22;2919;48.630;9.000;2022-07-17T11:24:42;26.70;50.10
5786;DHT22;2919;48.630;9.000;2022-07-17T11:27:12;26.40;48.80
5786;DHT22;2919;48.630;9.000;2022-07-17T11:29:43;26.60;48.80
5786;DHT22;2919;48.630;9.000;2022-07-17T11:32:09;26.60;50.00
5786;DHT22;2919;48.630;9.000;2022-07-17T11:34:34;26.90;48.80
5786;DHT22;2919;48.630;9.000;2022-07-17T11:37:01;27.20;47.50
5786;DHT22;2919;48.630;9.000;2022-07-17T11:39:43;27.30;46.30
5786;DHT22;2919;48.630;9.000;2022-07-17T11:42:14;27.40;46.60
5786;DHT22;2919;48.630;9.000;2022-07-17T11:44:40;27.40;46.50
5786;DHT22;2919;48.630;9.000;2022-07-17T11:47:07;27.70;46.00
5786;DHT22;2919;48.630;9.000;2022-07-17T11:49:35;27.70;45.60
5786;DHT22;2919;48.630;9.000;2022-07-17T11:52:17;27.50;45.10
5786;DHT22;2919;48.630;9.000;2022-07-17T11:57:18;27.20;47.70
5786;DHT22;2919;48.630;9.000;2022-07-17T11:59:45;27.40;47.50
5786;DHT22;2919;48.630;9.000;2022-07-17T12:02:16;27.50;47.60
5786;DHT22;2919;48.630;9.000;2022-07-17T12:04:54;28.00;43.50
5786;DHT22;2919;48.630;9.000;2022-07-17T12:07:21;27.80;44.50
5786;DHT22;2919;48.630;9.000;2022-07-17T12:09:47;27.90;46.80
5786;DHT22;2919;48.630;9.000;2022-07-17T12:12:23;27.90;46.50
5786;DHT22;2919;48.630;9.000;2022-07-17T12:14:53;28.10;48.60
5786;DHT22;2919;48.630;9.000;2022-07-17T12:17:19;28.30;46.30
5786;DHT22;2919;48.630;9.000;2022-07-17T12:19:45;28.60;44.50
5786;DHT22;2919;48.630;9.000;2022-07-17T12:22:11;28.20;46.20
5786;DHT22;2919;48.630;9.000;2022-07-17T12:24:39;28.10;45.80
5786;DHT22;2919;48.630;9.000;2022-07-17T12:27:08;28.10;47.00
5786;DHT22;2919;48.630;9.000;2022-07-17T12:29:34;28.20;44.80
5786;DHT22;2919;48.630;9.000;2022-07-17T12:34:26;28.30;46.90
5786;DHT22;2919;48.630;9.000;2022-07-17T12:36:51;28.20;47.00
5786;DHT22;2919;48.630;9.000;2022-07-17T12:39:17;28.50;46.90
5786;DHT22;2919;48.630;9.000;2022-07-17T12:41:42;28.60;43.70
5786;DHT22;2919;48.630;9.000;2022-07-17T12:44:08;28.60;44.50
5786;DHT22;2919;48.630;9.000;2022-07-17T12:46:34;28.60;46.60
5786;DHT22;2919;48.630;9.000;2022-07-17T12:48:59;28.70;45.10
5786;DHT22;2919;48.630;9.000;2022-07-17T12:51:25;28.40;44.10
5786;DHT22;2919;48.630;9.000;2022-07-17T12:53:51;28.00;44.60
5786;DHT22;2919;48.630;9.000;2022-07-17T12:56:16;28.10;46.20
5786;DHT22;2919;48.630;9.000;2022-07-17T12:58:43;28.10;46.20
5786;DHT22;2919;48.630;9.000;2022-07-17T13:01:09;28.10;45.90
5786;DHT22;2919;48.630;9.000;2022-07-17T13:03:37;28.50;44.50
5786;DHT22;2919;48.630;9.000;2022-07-17T13:06:03;29.00;42.60
5786;DHT22;2919;48.630;9.000;2022-07-17T13:08:29;28.90;42.80
5786;DHT22;2919;48.630;9.000;2022-07-17T13:10:56;28.70;42.20
5786;DHT22;2919;48.630;9.000;2022-07-17T13:13:22;28.70;43.00
5786;DHT22;2919;48.630;9.000;2022-07-17T13:15:48;28.70;43.20
5786;DHT22;2919;48.630;9.000;2022-07-17T13:18:14;28.60;41.90
5786;DHT22;2919;48.630;9.000;2022-07-17T13:20:40;28.90;41.60
5786;DHT22;2919;48.630;9.000;2022-07-17T13:23:05;29.00;40.10
5786;DHT22;2919;48.630;9.000;2022-07-17T13:25:31;29.10;40.80
5786;DHT22;2919;48.630;9.000;2022-07-17T13:27:58;29.10;41.20
5786;DHT22;2919;48.630;9.000;2022-07-17T13:30:24;29.50;40.10
5786;DHT22;2919;48.630;9.000;2022-07-17T13:32:50;29.60;39.80
5786;DHT22;2919;48.630;9.000;2022-07-17T13:35:15;29.60;39.70
5786;DHT22;2919;48.630;9.000;2022-07-17T13:37:43;29.50;42.30
5786;DHT22;2919;48.630;9.000;2022-07-17T13:40:10;29.10;40.50
5786;DHT22;2919;48.630;9.000;2022-07-17T13:42:35;29.20;41.90
5786;DHT22;2919;48.630;9.000;2022-07-17T13:45:02;29.50;40.60
5786;DHT22;2919;48.630;9.000;2022-07-17T13:47:28;29.30;42.50
5786;DHT22;2919;48.630;9.000;2022-07-17T13:49:54;29.10;41.60
5786;DHT22;2919;48.630;9.000;2022-07-17T13:52:20;29.50;40.90
5786;DHT22;2919;48.630;9.000;2022-07-17T13:54:45;29.60;41.10
5786;DHT22;2919;48.630;9.000;2022-07-17T13:57:11;29.40;41.50
5786;DHT22;2919;48.630;9.000;2022-07-17T13:59:36;28.90;41.30
5786;DHT22;2919;48.630;9.000;2022-07-17T14:02:02;29.20;41.50
5786;DHT22;2919;48.630;9.000;2022-07-17T14:04:28;28.90;42.60
5786;DHT22;2919;48.630;9.000;2022-07-17T14:06:53;29.00;43.50
5786;DHT22;2919;48.630;9.000;2022-07-17T14:09:19;28.90;41.90
5786;DHT22;2919;48.630;9.000;2022-07-17T14:11:45;28.80;41.60
5786;DHT22;2919;48.630;9.000;2022-07-17T14:14:10;28.80;42.70
5786;DHT22;2919;48.630;9.000;2022-07-17T14:16:36;28.60;42.50
5786;DHT22;2919;48.630;9.000;2022-07-17T14:19:02;28.90;42.40
5786;DHT22;2919;48.630;9.000;2022-07-17T14:21:36;28.90;42.40
5786;DHT22;2919;48.630;9.000;2022-07-17T14:24:03;29.00;42.20
5786;DHT22;2919;48.630;9.000;2022-07-17T14:26:29;29.20;41.80
5786;DHT22;2919;48.630;9.000;2022-07-17T14:28:56;29.20;42.30
5786;DHT22;2919;48.630;9.000;2022-07-17T14:31:22;29.10;41.60
5786;DHT22;2919;48.630;9.000;2022-07-17T14:33:47;29.00;41.10
5786;DHT22;2919;48.630;9.000;2022-07-17T14:36:13;29.00;41.30
5786;DHT22;2919;48.630;9.000;2022-07-17T14:38:39;29.00;41.40
5786;DHT22;2919;48.630;9.000;2022-07-17T14:41:05;28.90;40.60
5786;DHT22;2919;48.630;9.000;2022-07-17T14:43:31;28.90;41.20
5786;DHT22;2919;48.630;9.000;2022-07-17T14:45:57;29.00;41.70
5786;DHT22;2919;48.630;9.000;2022-07-17T14:48:23;29.20;40.10
5786;DHT22;2919;48.630;9.000;2022-07-17T14:50:49;29.20;41.20
5786;DHT22;2919;48.630;9.000;2022-07-17T14:53:15;29.40;40.70
5786;DHT22;2919;48.630;9.000;2022-07-17T14:55:40;29.30;40.80
5786;DHT22;2919;48.630;9.000;2022-07-17T14:58:06;29.30;40.20
5786;DHT22;2919;48.630;9.000;2022-07-17T15:00:32;28.90;40.60
5786;DHT22;2919;48.630;9.000;2022-07-17T15:02:57;29.00;40.60
5786;DHT22;2919;48.630;9.000;2022-07-17T15:05:23;29.00;40.50
5786;DHT22;2919;48.630;9.000;2022-07-17T15:07:49;29.10;41.20
5786;DHT22;2919;48.630;9.000;2022-07-17T15:10:15;29.00;40.90
5786;DHT22;2919;48.630;9.000;2022-07-17T15:12:41;29.20;40.70
5786;DHT22;2919;48.630;9.000;2022-07-17T15:15:07;29.20;41.10
5786;DHT22;2919;48.630;9.000;2022-07-17T15:17:33;28.80;42.90
5786;DHT22;2919;48.630;9.000;2022-07-17T15:19:58;28.70;41.00
5786;DHT22;2919;48.630;9.000;2022-07-17T15:22:24;28.90;40.40
5786;DHT22;2919;48.630;9.000;2022-07-17T15:24:50;28.90;40.90
5786;DHT22;2919;48.630;9.000;2022-07-17T15:27:15;29.00;39.70
5786;DHT22;2919;48.630;9.000;2022-07-17T15:29:41;28.80;40.20
5786;DHT22;2919;48.630;9.000;2022-07-17T15:32:07;28.80;42.50
5786;DHT22;2919;48.630;9.000;2022-07-17T15:34:33;28.80;42.40
5786;DHT22;2919;48.630;9.000;2022-07-17T15:36:58;28.60;43.10
5786;DHT22;2919;48.630;9.000;2022-07-17T15:39:24;28.70;42.10
5786;DHT22;2919;48.630;9.000;2022-07-17T15:41:50;28.80;41.60
5786;DHT22;2919;48.630;9.000;2022-07-17T15:44:15;28.90;41.60
5786;DHT22;2919;48.630;9.000;2022-07-17T15:46:44;29.00;41.70
5786;DHT22;2919;48.630;9.000;2022-07-17T15:49:10;28.90;42.30
5786;DHT22;2919;48.630;9.000;2022-07-17T15:51:37;28.80;41.70
5786;DHT22;2919;48.630;9.000;2022-07-17T15:54:02;28.70;43.40
5786;DHT22;2919;48.630;9.000;2022-07-17T15:56:34;28.50;41.70
5786;DHT22;2919;48.630;9.000;2022-07-17T15:59:00;28.50;41.20
5786;DHT22;2919;48.630;9.000;2022-07-17T16:01:26;28.50;41.00
5786;DHT22;2919;48.630;9.000;2022-07-17T16:03:52;28.30;40.80
5786;DHT22;2919;48.630;9.000;2022-07-17T16:06:18;28.30;41.30
5786;DHT22;2919;48.630;9.000;2022-07-17T16:08:44;28.40;40.50
5786;DHT22;2919;48.630;9.000;2022-07-17T16:11:09;28.40;40.70
5786;DHT22;2919;48.630;9.000;2022-07-17T16:13:35;28.50;40.80
5786;DHT22;2919;48.630;9.000;2022-07-17T16:16:01;28.50;40.10
5786;DHT22;2919;48.630;9.000;2022-07-17T16:18:26;28.40;41.40
5786;DHT22;2919;48.630;9.000;2022-07-17T16:20:52;28.20;40.60
5786;DHT22;2919;48.630;9.000;2022-07-17T16:23:18;28.20;40.80
5786;DHT22;2919;48.630;9.000;2022-07-17T16:25:43;28.20;40.90
5786;DHT22;2919;48.630;9.000;2022-07-17T16:28:09;28.20;40.20
5786;DHT22;2919;48.630;9.000;2022-07-17T16:30:35;28.10;39.60